sensor_id;sensor_type;location;lat;lon;timestamp;P1;durP1;ratioP1;P2;durP2;ratioP2
56255;SDS011;57229;51.432;-2.598;2023-09-30T00:00:15;25.90;;;7.55;;
56255;SDS011;57229;51.432;-2.598;2023-09-30T00:02:41;15.23;;;6.53;;
56255;SDS011;57229;51.432;-2.598;2023-09-30T00:05:06;10.65;;;5.75;;
56255;SDS011;57229;51.432;-2.598;2023-09-30T00:07:33;19.92;;;6.30;;
56255;SDS011;57229;51.432;-2.598;2023-09-30T00:09:59;11.60;;;5.47;;
56255;SDS011;57229;51.432;-2.598;2023-09-30T00:12:25;16.23;;;6.20;;
56255;SDS011;57229;51.432;-2.598;2023-09-30T00:14:51;24.13;;;7.00;;
56255;SDS011;57229;51.432;-2.598;2023-09-30T00:17:17;27.63;;;7.10;;
56255;SDS011;57229;51.432;-2.598;2023-09-30T00:19:43;14.65;;;6.22;;
56255;SDS011;57229;51.432;-2.598;2023-09-30T00:22:09;15.68;;;6.97;;
56255;SDS011;57229;51.432;-2.598;2023-09-30T00:24:35;17.20;;;6.28;;
56255;SDS011;57229;51.432;-2.598;2023-09-30T00:27:01;15.68;;;7.38;;
56255;SDS011;57229;51.432;-2.598;2023-09-30T00:29:26;14.35;;;6.22;;
56255;SDS011;57229;51.432;-2.598;2023-09-30T00:31:52;15.32;;;6.70;;
56255;SDS011;57229;51.432;-2.598;2023-09-30T00:34:18;12.60;;;5.78;;
56255;SDS011;57229;51.432;-2.598;2023-09-30T00:36:43;17.30;;;6.25;;
56255;SDS011;57229;51.432;-2.598;2023-09-30T00:39:09;14.50;;;5.82;;
56255;SDS011;57229;51.432;-2.598;2023-09-30T00:41:35;12.18;;;5.43;;
56255;SDS011;57229;51.432;-2.598;2023-09-30T00:44:01;18.50;;;5.88;;
56255;SDS011;57229;51.432;-2.598;2023-09-30T00:46:33;15.23;;;6.00;;
56255;SDS011;57229;51.432;-2.598;2023-09-30T00:49:02;16.50;;;6.05;;
56255;SDS011;57229;51.432;-2.598;2023-09-30T00:51:28;19.95;;;5.95;;
56255;SDS011;57229;51.432;-2.598;2023-09-30T00:53:55;12.70;;;5.53;;
56255;SDS011;57229;51.432;-2.598;2023-09-30T00:56:25;16.98;;;6.35;;
56255;SDS011;57229;51.432;-2.598;2023-09-30T00:58:53;16.80;;;6.80;;
56255;SDS011;57229;51.432;-2.598;2023-09-30T01:01:19;16.60;;;6.18;;
56255;SDS011;57229;51.432;-2.598;2023-09-30T01:03:46;11.38;;;6.53;;
56255;SDS011;57229;51.432;-2.598;2023-09-30T01:06:12;21.85;;;7.28;;
56255;SDS011;57229;51.432;-2.598;2023-09-30T01:08:38;14.88;;;6.57;;
56255;SDS011;57229;51.432;-2.598;2023-09-30T01:11:04;13.98;;;6.60;;
56255;SDS011;57229;51.432;-2.598;2023-09-30T01:13:33;15.45;;;6.85;;
56255;SDS011;57229;51.432;-2.598;2023-09-30T01:16:06;18.40;;;6.50;;
56255;SDS011;57229;51.432;-2.598;2023-09-30T01:18:34;16.17;;;6.93;;
56255;SDS011;57229;51.432;-2.598;2023-09-30T01:21:02;12.60;;;6.57;;
56255;SDS011;57229;51.432;-2.598;2023-09-30T01:23:31;18.17;;;6.53;;
56255;SDS011;57229;51.432;-2.598;2023-09-30T01:26:00;18.50;;;6.30;;
56255;SDS011;57229;51.432;-2.598;2023-09-30T01:28:30;11.55;;;5.78;;
56255;SDS011;57229;51.432;-2.598;2023-09-30T01:30:56;11.73;;;6.00;;
56255;SDS011;57229;51.432;-2.598;2023-09-30T01:33:22;15.20;;;6.32;;
56255;SDS011;57229;51.432;-2.598;2023-09-30T01:35:48;17.67;;;6.80;;
56255;SDS011;57229;51.432;-2.598;2023-09-30T01:38:14;13.93;;;6.10;;
56255;SDS011;57229;51.432;-2.598;2023-09-30T01:40:39;15.88;;;6.28;;
56255;SDS011;57229;51.432;-2.598;2023-09-30T01:43:05;21.10;;;6.25;;
56255;SDS011;57229;51.432;-2.598;2023-09-30T01:45:31;14.35;;;6.15;;
56255;SDS011;57229;51.432;-2.598;2023-09-30T01:47:56;15.48;;;6.30;;
56255;SDS011;57229;51.432;-2.598;2023-09-30T01:50:22;16.83;;;5.93;;
56255;SDS011;57229;51.432;-2.598;2023-09-30T01:52:48;15.30;;;6.07;;
56255;SDS011;57229;51.432;-2.598;2023-09-30T01:55:14;12.60;;;5.78;;
56255;SDS011;57229;51.432;-2.598;2023-09-30T01:57:39;13.60;;;6.07;;
56255;SDS011;57229;51.432;-2.598;2023-09-30T02:00:05;10.00;;;5.80;;
56255;SDS011;57229;51.432;-2.598;2023-09-30T02:02:34;10.00;;;6.10;;
56255;SDS011;57229;51.432;-2.598;2023-09-30T02:05:00;13.80;;;5.72;;
56255;SDS011;57229;51.432;-2.598;2023-09-30T02:07:26;15.82;;;5.68;;
56255;SDS011;57229;51.432;-2.598;2023-09-30T02:09:51;16.17;;;5.97;;
56255;SDS011;57229;51.432;-2.598;2023-09-30T02:12:17;20.98;;;6.25;;
56255;SDS011;57229;51.432;-2.598;2023-09-30T02:14:43;10.13;;;6.07;;
56255;SDS011;57229;51.432;-2.598;2023-09-30T02:17:08;14.32;;;5.80;;
56255;SDS011;57229;51.432;-2.598;2023-09-30T02:19:34;23.58;;;6.05;;
56255;SDS011;57229;51.432;-2.598;2023-09-30T02:22:00;12.00;;;5.70;;
56255;SDS011;57229;51.432;-2.598;2023-09-30T02:24:25;16.15;;;5.55;;
56255;SDS011;57229;51.432;-2.598;2023-09-30T02:26:51;12.13;;;5.50;;
56255;SDS011;57229;51.432;-2.598;2023-09-30T02:29:16;10.85;;;5.07;;
56255;SDS011;57229;51.432;-2.598;2023-09-30T02:31:42;12.07;;;5.55;;
56255;SDS011;57229;51.432;-2.598;2023-09-30T02:34:08;16.33;;;5.60;;
56255;SDS011;57229;51.432;-2.598;2023-09-30T02:36:33;8.68;;;5.40;;
56255;SDS011;57229;51.432;-2.598;2023-09-30T02:39:08;13.55;;;5.85;;
56255;SDS011;57229;51.432;-2.598;2023-09-30T02:41:34;22.27;;;6.85;;
56255;SDS011;57229;51.432;-2.598;2023-09-30T02:44:00;17.85;;;6.57;;
56255;SDS011;57229;51.432;-2.598;2023-09-30T02:46:26;12.90;;;6.18;;
56255;SDS011;57229;51.432;-2.598;2023-09-30T02:48:53;17.13;;;6.15;;
56255;SDS011;57229;51.432;-2.598;2023-09-30T02:51:19;13.90;;;6.55;;
56255;SDS011;57229;51.432;-2.598;2023-09-30T02:53:44;17.25;;;6.13;;
56255;SDS011;57229;51.432;-2.598;2023-09-30T02:56:13;16.25;;;6.47;;
56255;SDS011;57229;51.432;-2.598;2023-09-30T02:58:39;18.90;;;6.45;;
56255;SDS011;57229;51.432;-2.598;2023-09-30T03:01:05;11.43;;;6.25;;
56255;SDS011;57229;51.432;-2.598;2023-09-30T03:03:32;13.32;;;6.32;;
56255;SDS011;57229;51.432;-2.598;2023-09-30T03:05:58;16.23;;;6.47;;
56255;SDS011;57229;51.432;-2.598;2023-09-30T03:08:25;12.65;;;6.25;;
56255;SDS011;57229;51.432;-2.598;2023-09-30T03:10:51;13.57;;;5.90;;
56255;SDS011;57229;51.432;-2.598;2023-09-30T03:13:17;17.23;;;6.53;;
56255;SDS011;57229;51.432;-2.598;2023-09-30T03:15:45;13.88;;;6.03;;
56255;SDS011;57229;51.432;-2.598;2023-09-30T03:18:13;13.63;;;5.30;;
56255;SDS011;57229;51.432;-2.598;2023-09-30T03:20:39;14.55;;;5.93;;
56255;SDS011;57229;51.432;-2.598;2023-09-30T03:23:05;13.43;;;6.10;;
56255;SDS011;57229;51.432;-2.598;2023-09-30T03:25:30;13.88;;;6.38;;
56255;SDS011;57229;51.432;-2.598;2023-09-30T03:27:56;12.93;;;6.07;;
56255;SDS011;57229;51.432;-2.598;2023-09-30T03:30:22;12.70;;;5.68;;
56255;SDS011;57229;51.432;-2.598;2023-09-30T03:32:47;9.38;;;5.32;;
56255;SDS011;57229;51.432;-2.598;2023-09-30T03:35:13;18.20;;;5.40;;
56255;SDS011;57229;51.432;-2.598;2023-09-30T03:37:43;12.00;;;5.60;;
56255;SDS011;57229;51.432;-2.598;2023-09-30T03:40:10;13.68;;;5.80;;
56255;SDS011;57229;51.432;-2.598;2023-09-30T03:42:46;11.43;;;6.22;;
56255;SDS011;57229;51.432;-2.598;2023-09-30T03:45:14;13.45;;;5.47;;
56255;SDS011;57229;51.432;-2.598;2023-09-30T03:47:41;10.52;;;5.13;;
56255;SDS011;57229;51.432;-2.598;2023-09-30T03:50:07;12.07;;;5.07;;
56255;SDS011;57229;51.432;-2.598;2023-09-30T03:52:40;9.15;;;5.30;;
56255;SDS011;57229;51.432;-2.598;2023-09-30T03:55:09;17.17;;;5.53;;
56255;SDS011;57229;51.432;-2.598;2023-09-30T03:57:36;12.27;;;5.80;;
56255;SDS011;57229;51.432;-2.598;2023-09-30T04:00:03;8.73;;;5.30;;
56255;SDS011;57229;51.432;-2.598;2023-09-30T04:02:32;13.73;;;5.93;;
56255;SDS011;57229;51.432;-2.598;2023-09-30T04:04:59;12.85;;;5.63;;
56255;SDS011;57229;51.432;-2.598;2023-09-30T04:07:28;15.45;;;5.80;;
56255;SDS011;57229;51.432;-2.598;2023-09-30T04:09:54;9.70;;;5.65;;
56255;SDS011;57229;51.432;-2.598;2023-09-30T04:12:20;11.45;;;5.75;;
56255;SDS011;57229;51.432;-2.598;2023-09-30T04:14:48;11.13;;;5.18;;
56255;SDS011;57229;51.432;-2.598;2023-09-30T04:17:14;10.43;;;5.38;;
56255;SDS011;57229;51.432;-2.598;2023-09-30T04:19:40;10.18;;;5.18;;
56255;SDS011;57229;51.432;-2.598;2023-09-30T04:22:05;8.68;;;5.13;;
56255;SDS011;57229;51.432;-2.598;2023-09-30T04:24:31;13.48;;;5.30;;
56255;SDS011;57229;51.432;-2.598;2023-09-30T04:26:56;10.80;;;5.13;;
56255;SDS011;57229;51.432;-2.598;2023-09-30T04:29:27;12.30;;;5.72;;
56255;SDS011;57229;51.432;-2.598;2023-09-30T04:31:54;12.93;;;5.10;;
56255;SDS011;57229;51.432;-2.598;2023-09-30T04:34:22;17.27;;;5.78;;
56255;SDS011;57229;51.432;-2.598;2023-09-30T04:36:48;15.07;;;5.28;;
56255;SDS011;57229;51.432;-2.598;2023-09-30T04:39:13;12.93;;;5.35;;
56255;SDS011;57229;51.432;-2.598;2023-09-30T04:41:40;9.98;;;5.20;;
56255;SDS011;57229;51.432;-2.598;2023-09-30T04:44:07;13.82;;;5.18;;
56255;SDS011;57229;51.432;-2.598;2023-09-30T04:46:36;11.23;;;5.28;;
56255;SDS011;57229;51.432;-2.598;2023-09-30T04:49:11;8.65;;;5.28;;
56255;SDS011;57229;51.432;-2.598;2023-09-30T04:51:38;14.25;;;5.40;;
56255;SDS011;57229;51.432;-2.598;2023-09-30T04:54:04;12.52;;;5.25;;
56255;SDS011;57229;51.432;-2.598;2023-09-30T04:56:32;14.80;;;5.55;;
56255;SDS011;57229;51.432;-2.598;2023-09-30T04:58:57;12.85;;;5.30;;
56255;SDS011;57229;51.432;-2.598;2023-09-30T05:01:23;13.05;;;5.47;;
56255;SDS011;57229;51.432;-2.598;2023-09-30T05:03:50;11.23;;;5.47;;
56255;SDS011;57229;51.432;-2.598;2023-09-30T05:06:15;11.68;;;5.35;;
56255;SDS011;57229;51.432;-2.598;2023-09-30T05:08:41;13.80;;;5.55;;
56255;SDS011;57229;51.432;-2.598;2023-09-30T05:11:07;10.73;;;5.70;;
56255;SDS011;57229;51.432;-2.598;2023-09-30T05:13:32;9.25;;;5.80;;
56255;SDS011;57229;51.432;-2.598;2023-09-30T05:15:59;12.82;;;6.50;;
56255;SDS011;57229;51.432;-2.598;2023-09-30T05:18:24;23.08;;;10.00;;
56255;SDS011;57229;51.432;-2.598;2023-09-30T05:20:50;15.98;;;7.57;;
56255;SDS011;57229;51.432;-2.598;2023-09-30T05:23:16;15.73;;;7.15;;
56255;SDS011;57229;51.432;-2.598;2023-09-30T05:25:42;15.18;;;7.03;;
56255;SDS011;57229;51.432;-2.598;2023-09-30T05:28:08;21.33;;;7.28;;
56255;SDS011;57229;51.432;-2.598;2023-09-30T05:30:34;15.23;;;7.63;;
56255;SDS011;57229;51.432;-2.598;2023-09-30T05:33:00;12.35;;;7.38;;
56255;SDS011;57229;51.432;-2.598;2023-09-30T05:35:26;10.63;;;6.35;;
56255;SDS011;57229;51.432;-2.598;2023-09-30T05:37:53;10.82;;;5.70;;
56255;SDS011;57229;51.432;-2.598;2023-09-30T05:40:19;15.45;;;5.90;;
56255;SDS011;57229;51.432;-2.598;2023-09-30T05:42:54;13.77;;;5.90;;
56255;SDS011;57229;51.432;-2.598;2023-09-30T05:45:23;14.55;;;6.30;;
56255;SDS011;57229;51.432;-2.598;2023-09-30T05:47:49;9.40;;;5.50;;
56255;SDS011;57229;51.432;-2.598;2023-09-30T05:50:17;13.43;;;6.25;;
56255;SDS011;57229;51.432;-2.598;2023-09-30T05:52:48;15.52;;;6.20;;
56255;SDS011;57229;51.432;-2.598;2023-09-30T05:55:15;11.23;;;5.65;;
56255;SDS011;57229;51.432;-2.598;2023-09-30T05:57:44;11.75;;;6.05;;
56255;SDS011;57229;51.432;-2.598;2023-09-30T06:00:11;12.15;;;5.90;;
56255;SDS011;57229;51.432;-2.598;2023-09-30T06:02:53;12.90;;;5.97;;
56255;SDS011;57229;51.432;-2.598;2023-09-30T06:05:19;15.23;;;5.88;;
56255;SDS011;57229;51.432;-2.598;2023-09-30T06:07:45;13.43;;;6.15;;
56255;SDS011;57229;51.432;-2.598;2023-09-30T06:10:11;13.43;;;6.22;;
56255;SDS011;57229;51.432;-2.598;2023-09-30T06:12:40;16.77;;;6.47;;
56255;SDS011;57229;51.432;-2.598;2023-09-30T06:15:07;19.35;;;6.57;;
56255;SDS011;57229;51.432;-2.598;2023-09-30T06:17:33;14.13;;;6.15;;
56255;SDS011;57229;51.432;-2.598;2023-09-30T06:19:58;21.13;;;6.00;;
56255;SDS011;57229;51.432;-2.598;2023-09-30T06:22:32;14.50;;;6.03;;
56255;SDS011;57229;51.432;-2.598;2023-09-30T06:24:58;14.80;;;5.97;;
56255;SDS011;57229;51.432;-2.598;2023-09-30T06:27:23;15.27;;;6.13;;
56255;SDS011;57229;51.432;-2.598;2023-09-30T06:29:49;15.55;;;6.05;;
56255;SDS011;57229;51.432;-2.598;2023-09-30T06:32:14;15.23;;;6.22;;
56255;SDS011;57229;51.432;-2.598;2023-09-30T06:34:40;12.00;;;6.28;;
56255;SDS011;57229;51.432;-2.598;2023-09-30T06:37:06;13.13;;;6.20;;
56255;SDS011;57229;51.432;-2.598;2023-09-30T06:39:33;12.75;;;5.90;;
56255;SDS011;57229;51.432;-2.598;2023-09-30T06:41:59;12.63;;;6.43;;
56255;SDS011;57229;51.432;-2.598;2023-09-30T06:44:24;14.80;;;6.60;;
56255;SDS011;57229;51.432;-2.598;2023-09-30T06:46:50;14.25;;;6.38;;
56255;SDS011;57229;51.432;-2.598;2023-09-30T06:49:16;14.00;;;6.47;;
56255;SDS011;57229;51.432;-2.598;2023-09-30T06:51:41;17.33;;;6.47;;
56255;SDS011;57229;51.432;-2.598;2023-09-30T06:54:08;24.65;;;7.10;;
56255;SDS011;57229;51.432;-2.598;2023-09-30T06:56:33;12.75;;;6.53;;
56255;SDS011;57229;51.432;-2.598;2023-09-30T06:58:59;12.90;;;5.93;;
56255;SDS011;57229;51.432;-2.598;2023-09-30T07:01:26;11.02;;;5.88;;
56255;SDS011;57229;51.432;-2.598;2023-09-30T07:03:51;13.23;;;5.82;;
56255;SDS011;57229;51.432;-2.598;2023-09-30T07:06:26;12.27;;;6.25;;
56255;SDS011;57229;51.432;-2.598;2023-09-30T07:08:52;13.20;;;6.93;;
56255;SDS011;57229;51.432;-2.598;2023-09-30T07:11:28;17.05;;;7.32;;
56255;SDS011;57229;51.432;-2.598;2023-09-30T07:13:54;12.00;;;7.38;;
56255;SDS011;57229;51.432;-2.598;2023-09-30T07:16:20;11.73;;;6.50;;
56255;SDS011;57229;51.432;-2.598;2023-09-30T07:18:46;17.25;;;6.75;;
56255;SDS011;57229;51.432;-2.598;2023-09-30T07:21:11;15.52;;;6.65;;
56255;SDS011;57229;51.432;-2.598;2023-09-30T07:23:37;19.77;;;6.88;;
56255;SDS011;57229;51.432;-2.598;2023-09-30T07:26:03;13.07;;;6.43;;
56255;SDS011;57229;51.432;-2.598;2023-09-30T07:28:29;13.75;;;7.32;;
56255;SDS011;57229;51.432;-2.598;2023-09-30T07:30:54;14.48;;;6.78;;
56255;SDS011;57229;51.432;-2.598;2023-09-30T07:33:20;13.35;;;6.60;;
56255;SDS011;57229;51.432;-2.598;2023-09-30T07:35:46;21.52;;;6.20;;
56255;SDS011;57229;51.432;-2.598;2023-09-30T07:38:12;14.35;;;6.40;;
56255;SDS011;57229;51.432;-2.598;2023-09-30T07:40:37;14.45;;;6.55;;
56255;SDS011;57229;51.432;-2.598;2023-09-30T07:43:03;12.52;;;6.22;;
56255;SDS011;57229;51.432;-2.598;2023-09-30T07:45:29;13.07;;;6.38;;
56255;SDS011;57229;51.432;-2.598;2023-09-30T07:47:54;14.10;;;6.65;;
56255;SDS011;57229;51.432;-2.598;2023-09-30T07:50:20;17.17;;;6.57;;
56255;SDS011;57229;51.432;-2.598;2023-09-30T07:52:46;14.85;;;6.25;;
56255;SDS011;57229;51.432;-2.598;2023-09-30T07:55:11;19.45;;;5.68;;
56255;SDS011;57229;51.432;-2.598;2023-09-30T07:57:39;13.68;;;6.18;;
56255;SDS011;57229;51.432;-2.598;2023-09-30T08:00:07;10.98;;;5.68;;
56255;SDS011;57229;51.432;-2.598;2023-09-30T08:02:35;18.90;;;6.55;;
56255;SDS011;57229;51.432;-2.598;2023-09-30T08:05:01;10.20;;;5.85;;
56255;SDS011;57229;51.432;-2.598;2023-09-30T08:07:27;12.10;;;6.10;;
56255;SDS011;57229;51.432;-2.598;2023-09-30T08:09:53;21.45;;;6.10;;
56255;SDS011;57229;51.432;-2.598;2023-09-30T08:12:19;15.63;;;6.10;;
56255;SDS011;57229;51.432;-2.598;2023-09-30T08:14:44;17.52;;;6.13;;
56255;SDS011;57229;51.432;-2.598;2023-09-30T08:17:10;14.38;;;5.45;;
56255;SDS011;57229;51.432;-2.598;2023-09-30T08:19:36;10.70;;;5.32;;
56255;SDS011;57229;51.432;-2.598;2023-09-30T08:22:02;15.43;;;6.00;;
56255;SDS011;57229;51.432;-2.598;2023-09-30T08:24:28;15.52;;;5.50;;
56255;SDS011;57229;51.432;-2.598;2023-09-30T08:26:54;13.48;;;5.97;;
56255;SDS011;57229;51.432;-2.598;2023-09-30T08:29:21;16.08;;;5.40;;
56255;SDS011;57229;51.432;-2.598;2023-09-30T08:31:47;12.98;;;5.53;;
56255;SDS011;57229;51.432;-2.598;2023-09-30T08:34:14;13.05;;;5.32;;
56255;SDS011;57229;51.432;-2.598;2023-09-30T08:36:40;14.43;;;5.43;;
56255;SDS011;57229;51.432;-2.598;2023-09-30T08:39:06;13.27;;;5.40;;
56255;SDS011;57229;51.432;-2.598;2023-09-30T08:41:32;17.58;;;5.40;;
56255;SDS011;57229;51.432;-2.598;2023-09-30T08:44:02;13.02;;;5.43;;
56255;SDS011;57229;51.432;-2.598;2023-09-30T08:46:32;15.20;;;5.68;;
56255;SDS011;57229;51.432;-2.598;2023-09-30T08:49:03;9.25;;;5.68;;
56255;SDS011;57229;51.432;-2.598;2023-09-30T08:51:31;10.27;;;5.18;;
56255;SDS011;57229;51.432;-2.598;2023-09-30T08:53:57;10.85;;;5.45;;
56255;SDS011;57229;51.432;-2.598;2023-09-30T08:56:24;14.20;;;5.57;;
56255;SDS011;57229;51.432;-2.598;2023-09-30T08:58:55;14.82;;;5.25;;
56255;SDS011;57229;51.432;-2.598;2023-09-30T09:01:23;12.77;;;5.63;;
56255;SDS011;57229;51.432;-2.598;2023-09-30T09:03:56;11.57;;;5.55;;
56255;SDS011;57229;51.432;-2.598;2023-09-30T09:06:22;14.43;;;5.55;;
56255;SDS011;57229;51.432;-2.598;2023-09-30T09:08:50;10.55;;;5.53;;
56255;SDS011;57229;51.432;-2.598;2023-09-30T09:11:16;13.07;;;5.57;;
56255;SDS011;57229;51.432;-2.598;2023-09-30T09:16:16;12.38;;;5.45;;
56255;SDS011;57229;51.432;-2.598;2023-09-30T09:18:45;14.15;;;5.50;;
56255;SDS011;57229;51.432;-2.598;2023-09-30T09:21:17;10.25;;;5.45;;
56255;SDS011;57229;51.432;-2.598;2023-09-30T09:23:49;13.15;;;5.88;;
56255;SDS011;57229;51.432;-2.598;2023-09-30T09:26:28;18.05;;;5.88;;
56255;SDS011;57229;51.432;-2.598;2023-09-30T09:28:57;11.13;;;5.22;;
56255;SDS011;57229;51.432;-2.598;2023-09-30T09:31:25;11.15;;;5.45;;
56255;SDS011;57229;51.432;-2.598;2023-09-30T09:33:52;13.27;;;5.53;;
56255;SDS011;57229;51.432;-2.598;2023-09-30T09:36:18;11.85;;;5.03;;
56255;SDS011;57229;51.432;-2.598;2023-09-30T09:38:45;11.77;;;5.63;;
56255;SDS011;57229;51.432;-2.598;2023-09-30T09:41:18;10.18;;;5.28;;
56255;SDS011;57229;51.432;-2.598;2023-09-30T09:43:49;13.23;;;5.15;;
56255;SDS011;57229;51.432;-2.598;2023-09-30T09:46:18;13.02;;;5.50;;
56255;SDS011;57229;51.432;-2.598;2023-09-30T09:48:44;15.88;;;5.07;;
56255;SDS011;57229;51.432;-2.598;2023-09-30T09:51:12;12.15;;;5.40;;
56255;SDS011;57229;51.432;-2.598;2023-09-30T09:53:40;11.15;;;5.13;;
56255;SDS011;57229;51.432;-2.598;2023-09-30T09:56:07;8.30;;;5.20;;
56255;SDS011;57229;51.432;-2.598;2023-09-30T09:58:35;9.93;;;5.35;;
56255;SDS011;57229;51.432;-2.598;2023-09-30T10:01:03;13.70;;;5.15;;
56255;SDS011;57229;51.432;-2.598;2023-09-30T10:03:31;8.88;;;5.03;;
56255;SDS011;57229;51.432;-2.598;2023-09-30T10:05:57;13.93;;;5.40;;
56255;SDS011;57229;51.432;-2.598;2023-09-30T10:08:40;12.63;;;5.55;;
56255;SDS011;57229;51.432;-2.598;2023-09-30T10:11:16;12.52;;;5.25;;
56255;SDS011;57229;51.432;-2.598;2023-09-30T10:13:52;13.10;;;5.10;;
56255;SDS011;57229;51.432;-2.598;2023-09-30T10:21:39;14.13;;;5.28;;
56255;SDS011;57229;51.432;-2.598;2023-09-30T10:29:58;13.35;;;5.45;;
56255;SDS011;57229;51.432;-2.598;2023-09-30T10:35:36;9.82;;;5.32;;
56255;SDS011;57229;51.432;-2.598;2023-09-30T10:40:53;11.13;;;5.55;;
56255;SDS011;57229;51.432;-2.598;2023-09-30T10:45:57;9.70;;;5.30;;
56255;SDS011;57229;51.432;-2.598;2023-09-30T10:50:59;9.60;;;5.70;;
56255;SDS011;57229;51.432;-2.598;2023-09-30T10:53:29;10.98;;;5.82;;
56255;SDS011;57229;51.432;-2.598;2023-09-30T10:55:56;9.48;;;5.50;;
56255;SDS011;57229;51.432;-2.598;2023-09-30T11:01:10;8.82;;;5.10;;
56255;SDS011;57229;51.432;-2.598;2023-09-30T11:03:38;10.90;;;4.80;;
56255;SDS011;57229;51.432;-2.598;2023-09-30T11:06:04;15.00;;;5.85;;
56255;SDS011;57229;51.432;-2.598;2023-09-30T11:08:30;7.45;;;5.28;;
56255;SDS011;57229;51.432;-2.598;2023-09-30T11:10:55;10.40;;;5.35;;
56255;SDS011;57229;51.432;-2.598;2023-09-30T11:13:21;6.55;;;5.40;;
56255;SDS011;57229;51.432;-2.598;2023-09-30T11:15:47;9.18;;;5.90;;
56255;SDS011;57229;51.432;-2.598;2023-09-30T11:18:29;10.25;;;5.50;;
56255;SDS011;57229;51.432;-2.598;2023-09-30T11:21:03;7.03;;;5.78;;
56255;SDS011;57229;51.432;-2.598;2023-09-30T11:23:31;14.38;;;5.53;;
56255;SDS011;57229;51.432;-2.598;2023-09-30T11:25:57;13.82;;;5.30;;
56255;SDS011;57229;51.432;-2.598;2023-09-30T11:28:22;9.07;;;4.85;;
56255;SDS011;57229;51.432;-2.598;2023-09-30T11:30:57;10.48;;;5.00;;
56255;SDS011;57229;51.432;-2.598;2023-09-30T11:33:24;10.45;;;4.75;;
56255;SDS011;57229;51.432;-2.598;2023-09-30T11:36:08;9.98;;;4.90;;
56255;SDS011;57229;51.432;-2.598;2023-09-30T11:38:35;14.38;;;5.43;;
56255;SDS011;57229;51.432;-2.598;2023-09-30T11:41:01;9.18;;;5.05;;
56255;SDS011;57229;51.432;-2.598;2023-09-30T11:43:30;10.18;;;5.07;;
56255;SDS011;57229;51.432;-2.598;2023-09-30T11:46:09;14.57;;;5.05;;
56255;SDS011;57229;51.432;-2.598;2023-09-30T11:48:36;10.20;;;5.28;;
56255;SDS011;57229;51.432;-2.598;2023-09-30T11:51:03;9.05;;;4.95;;
56255;SDS011;57229;51.432;-2.598;2023-09-30T11:53:32;13.13;;;5.47;;
56255;SDS011;57229;51.432;-2.598;2023-09-30T11:56:00;12.02;;;5.22;;
56255;SDS011;57229;51.432;-2.598;2023-09-30T11:58:29;10.40;;;5.47;;
56255;SDS011;57229;51.432;-2.598;2023-09-30T12:01:00;10.65;;;5.30;;
56255;SDS011;57229;51.432;-2.598;2023-09-30T12:03:26;12.18;;;4.90;;
56255;SDS011;57229;51.432;-2.598;2023-09-30T12:05:54;15.30;;;4.82;;
56255;SDS011;57229;51.432;-2.598;2023-09-30T12:08:20;7.10;;;4.75;;
56255;SDS011;57229;51.432;-2.598;2023-09-30T12:10:48;9.10;;;4.68;;
56255;SDS011;57229;51.432;-2.598;2023-09-30T12:13:14;10.95;;;5.00;;
56255;SDS011;57229;51.432;-2.598;2023-09-30T12:15:40;12.18;;;4.93;;
56255;SDS011;57229;51.432;-2.598;2023-09-30T12:18:07;7.88;;;5.57;;
56255;SDS011;57229;51.432;-2.598;2023-09-30T12:20:35;9.32;;;5.80;;
56255;SDS011;57229;51.432;-2.598;2023-09-30T12:23:01;11.60;;;6.03;;
56255;SDS011;57229;51.432;-2.598;2023-09-30T12:25:29;13.10;;;5.45;;
56255;SDS011;57229;51.432;-2.598;2023-09-30T12:27:55;10.50;;;5.43;;
56255;SDS011;57229;51.432;-2.598;2023-09-30T12:30:20;9.20;;;5.78;;
56255;SDS011;57229;51.432;-2.598;2023-09-30T12:32:46;9.38;;;5.90;;
56255;SDS011;57229;51.432;-2.598;2023-09-30T12:35:12;9.43;;;5.43;;
56255;SDS011;57229;51.432;-2.598;2023-09-30T12:37:38;11.15;;;6.00;;
56255;SDS011;57229;51.432;-2.598;2023-09-30T12:40:05;13.02;;;6.68;;
56255;SDS011;57229;51.432;-2.598;2023-09-30T12:42:32;11.60;;;5.43;;
56255;SDS011;57229;51.432;-2.598;2023-09-30T12:45:00;10.55;;;5.57;;
56255;SDS011;57229;51.432;-2.598;2023-09-30T12:47:26;10.45;;;5.60;;
56255;SDS011;57229;51.432;-2.598;2023-09-30T12:49:51;5.80;;;5.20;;
56255;SDS011;57229;51.432;-2.598;2023-09-30T12:52:17;12.30;;;5.78;;
56255;SDS011;57229;51.432;-2.598;2023-09-30T12:54:43;9.32;;;5.32;;
56255;SDS011;57229;51.432;-2.598;2023-09-30T12:57:09;7.65;;;5.10;;
56255;SDS011;57229;51.432;-2.598;2023-09-30T12:59:37;9.45;;;5.38;;
56255;SDS011;57229;51.432;-2.598;2023-09-30T13:02:03;9.57;;;5.00;;
56255;SDS011;57229;51.432;-2.598;2023-09-30T13:04:30;9.10;;;6.00;;
56255;SDS011;57229;51.432;-2.598;2023-09-30T13:06:55;13.13;;;5.68;;
56255;SDS011;57229;51.432;-2.598;2023-09-30T13:09:21;11.43;;;5.72;;
56255;SDS011;57229;51.432;-2.598;2023-09-30T13:11:47;7.85;;;5.72;;
56255;SDS011;57229;51.432;-2.598;2023-09-30T13:14:12;11.20;;;5.65;;
56255;SDS011;57229;51.432;-2.598;2023-09-30T13:16:38;12.82;;;5.63;;
56255;SDS011;57229;51.432;-2.598;2023-09-30T13:19:04;10.90;;;5.95;;
56255;SDS011;57229;51.432;-2.598;2023-09-30T13:21:29;11.27;;;6.03;;
56255;SDS011;57229;51.432;-2.598;2023-09-30T13:23:55;12.90;;;5.95;;
56255;SDS011;57229;51.432;-2.598;2023-09-30T13:26:21;12.20;;;6.13;;
56255;SDS011;57229;51.432;-2.598;2023-09-30T13:28:46;14.15;;;6.22;;
56255;SDS011;57229;51.432;-2.598;2023-09-30T13:31:12;9.18;;;5.57;;
56255;SDS011;57229;51.432;-2.598;2023-09-30T13:33:37;12.65;;;5.88;;
56255;SDS011;57229;51.432;-2.598;2023-09-30T13:36:03;13.43;;;6.22;;
56255;SDS011;57229;51.432;-2.598;2023-09-30T13:38:30;15.02;;;6.18;;
56255;SDS011;57229;51.432;-2.598;2023-09-30T13:40:55;10.30;;;5.80;;
56255;SDS011;57229;51.432;-2.598;2023-09-30T13:43:21;9.95;;;5.45;;
56255;SDS011;57229;51.432;-2.598;2023-09-30T13:45:47;9.52;;;6.00;;
56255;SDS011;57229;51.432;-2.598;2023-09-30T13:48:13;10.75;;;6.30;;
56255;SDS011;57229;51.432;-2.598;2023-09-30T13:50:39;15.10;;;6.10;;
56255;SDS011;57229;51.432;-2.598;2023-09-30T13:53:04;13.40;;;6.38;;
56255;SDS011;57229;51.432;-2.598;2023-09-30T13:55:30;15.50;;;6.00;;
56255;SDS011;57229;51.432;-2.598;2023-09-30T13:57:56;12.25;;;6.10;;
56255;SDS011;57229;51.432;-2.598;2023-09-30T14:00:22;13.40;;;6.15;;
56255;SDS011;57229;51.432;-2.598;2023-09-30T14:02:48;14.23;;;6.10;;
56255;SDS011;57229;51.432;-2.598;2023-09-30T14:05:15;18.60;;;6.57;;
56255;SDS011;57229;51.432;-2.598;2023-09-30T14:07:41;16.45;;;6.55;;
56255;SDS011;57229;51.432;-2.598;2023-09-30T14:10:08;15.43;;;6.00;;
56255;SDS011;57229;51.432;-2.598;2023-09-30T14:12:35;17.30;;;6.05;;
56255;SDS011;57229;51.432;-2.598;2023-09-30T14:15:02;14.07;;;6.55;;
56255;SDS011;57229;51.432;-2.598;2023-09-30T14:17:28;13.57;;;6.63;;
56255;SDS011;57229;51.432;-2.598;2023-09-30T14:19:53;15.98;;;5.95;;
56255;SDS011;57229;51.432;-2.598;2023-09-30T14:22:19;13.88;;;6.53;;
56255;SDS011;57229;51.432;-2.598;2023-09-30T14:24:44;18.35;;;7.00;;
56255;SDS011;57229;51.432;-2.598;2023-09-30T14:27:10;13.35;;;6.30;;
56255;SDS011;57229;51.432;-2.598;2023-09-30T14:29:36;14.98;;;6.80;;
56255;SDS011;57229;51.432;-2.598;2023-09-30T14:32:02;15.32;;;6.60;;
56255;SDS011;57229;51.432;-2.598;2023-09-30T14:34:28;20.30;;;6.75;;
56255;SDS011;57229;51.432;-2.598;2023-09-30T14:36:54;19.75;;;7.15;;
56255;SDS011;57229;51.432;-2.598;2023-09-30T14:39:20;20.98;;;7.45;;
56255;SDS011;57229;51.432;-2.598;2023-09-30T14:41:45;18.05;;;6.63;;
56255;SDS011;57229;51.432;-2.598;2023-09-30T14:44:11;16.15;;;7.07;;
56255;SDS011;57229;51.432;-2.598;2023-09-30T14:46:37;15.32;;;7.28;;
56255;SDS011;57229;51.432;-2.598;2023-09-30T14:49:03;11.63;;;6.70;;